Time;durP1;ratioP1;P1;durP2;ratioP2;P2;SDS_P1;SDS_P2;PMS_P1;PMS_P2;Temp;Humidity;BMP_temperature;BMP_pressure;BME280_temperature;BME280_humidity;BME280_pressure;Samples;Min_cycle;Max_cycle;Signal;HPM_P1;HPM_P2
2023/01/27 00:02:28;;;;;;;18.75;13.43;;;22.70;37.10;;;;;;6123502;28;83286;-49
2023/01/27 00:05:29;;;;;;;18.70;13.43;;;22.60;36.90;;;;;;6135234;28;84423;-47
2023/01/27 00:08:29;;;;;;;18.67;12.93;;;22.60;36.90;;;;;;6145189;28;90338;-46
2023/01/27 00:14:49;;;;;;;21.52;14.90;;;22.50;36.60;;;;;;6125432;28;84734;-46
2023/01/27 00:17:49;;;;;;;18.77;13.57;;;22.50;36.80;;;;;;6140032;28;83261;-47
2023/01/27 00:27:28;;;;;;;20.60;14.18;;;22.50;36.90;;;;;;6130165;28;83042;-46
2023/01/27 00:30:31;;;;;;;19.33;13.40;;;22.50;36.80;;;;;;6125676;28;83657;-50
2023/01/27 00:33:32;;;;;;;20.60;13.88;;;22.50;36.90;;;;;;6118089;28;84838;-47
2023/01/27 00:36:32;;;;;;;19.27;12.90;;;22.40;36.70;;;;;;6124275;28;83510;-47
2023/01/27 00:39:34;;;;;;;19.10;13.35;;;22.40;37.20;;;;;;6148883;28;82763;-49
2023/01/27 00:42:35;;;;;;;22.05;14.65;;;22.40;36.80;;;;;;6124957;28;85781;-48
2023/01/27 00:45:55;;;;;;;17.95;13.38;;;22.40;36.80;;;;;;6110931;28;84205;-46
2023/01/27 00:48:55;;;;;;;18.90;13.75;;;22.40;37.20;;;;;;6104727;28;82919;-50
2023/01/27 00:51:56;;;;;;;20.08;13.38;;;22.40;37.50;;;;;;6138974;28;83094;-47
2023/01/27 00:54:56;;;;;;;18.52;12.98;;;22.30;37.70;;;;;;6127457;28;83336;-47
2023/01/27 00:57:57;;;;;;;20.23;14.05;;;22.40;37.50;;;;;;6125835;28;83082;-48
2023/01/27 01:01:00;;;;;;;22.08;13.80;;;22.30;37.30;;;;;;6125606;28;82707;-49
2023/01/27 01:04:01;;;;;;;18.13;12.38;;;22.30;37.10;;;;;;6124863;28;85135;-49
2023/01/27 01:07:01;;;;;;;18.15;13.07;;;22.30;37.80;;;;;;6126418;28;83076;-46
2023/01/27 01:10:02;;;;;;;17.73;12.80;;;22.30;37.30;;;;;;6124866;28;84646;-48
2023/01/27 01:13:02;;;;;;;17.90;12.20;;;22.30;37.40;;;;;;6118510;28;82873;-48
2023/01/27 01:16:03;;;;;;;18.73;13.00;;;22.30;37.50;;;;;;6120726;28;82936;-50
2023/01/27 01:19:03;;;;;;;17.55;12.02;;;22.30;38.30;;;;;;6129224;28;85148;-52
2023/01/27 01:22:04;;;;;;;19.33;13.20;;;22.20;37.60;;;;;;6132691;28;84441;-49
2023/01/27 01:25:06;;;;;;;19.92;13.38;;;22.30;37.80;;;;;;6123786;28;84133;-60
2023/01/27 01:28:07;;;;;;;17.60;12.10;;;22.20;37.80;;;;;;6114775;28;83264;-61
2023/01/27 01:31:07;;;;;;;18.98;12.55;;;22.20;38.00;;;;;;6132639;28;84308;-61
2023/01/27 01:34:08;;;;;;;16.50;11.65;;;22.20;38.10;;;;;;6122992;28;83492;-59
2023/01/27 01:37:08;;;;;;;17.55;11.70;;;22.20;38.00;;;;;;6125460;28;83608;-60
2023/01/27 01:40:11;;;;;;;20.20;12.73;;;22.20;38.30;;;;;;6137520;28;83847;-61
2023/01/27 01:43:12;;;;;;;15.98;11.75;;;22.20;38.10;;;;;;6134762;28;84100;-63
2023/01/27 01:46:12;;;;;;;17.60;12.10;;;22.20;38.10;;;;;;6106633;28;83009;-62
2023/01/27 01:49:13;;;;;;;18.20;12.95;;;22.20;38.20;;;;;;6115502;28;82870;-62
2023/01/27 01:52:13;;;;;;;17.70;12.77;;;22.20;38.20;;;;;;6130288;28;86232;-62
2023/01/27 01:55:16;;;;;;;16.85;11.82;;;22.10;38.10;;;;;;6123240;28;83311;-63
2023/01/27 01:58:16;;;;;;;19.73;13.02;;;22.10;38.20;;;;;;6136961;28;86047;-63
2023/01/27 02:01:18;;;;;;;17.05;12.73;;;22.10;38.20;;;;;;6137195;28;83092;-63
2023/01/27 02:04:18;;;;;;;16.60;12.18;;;22.10;38.20;;;;;;6136918;28;86460;-63
2023/01/27 02:07:19;;;;;;;19.70;13.23;;;22.10;38.30;;;;;;6130163;28;83032;-65
2023/01/27 02:10:19;;;;;;;16.13;12.45;;;22.10;38.30;;;;;;6124071;28;86240;-64
2023/01/27 02:13:20;;;;;;;18.02;12.25;;;22.10;38.30;;;;;;6115854;28;83324;-64
2023/01/27 02:16:20;;;;;;;16.95;12.60;;;22.10;38.30;;;;;;6122877;28;83714;-64
2023/01/27 02:19:21;;;;;;;18.90;13.05;;;22.10;38.20;;;;;;6123867;28;84330;-55
2023/01/27 02:22:21;;;;;;;19.50;13.32;;;22.10;38.20;;;;;;6107364;28;84146;-57
2023/01/27 02:25:22;;;;;;;17.50;12.20;;;22.10;38.20;;;;;;6125594;28;84477;-56
2023/01/27 02:28:22;;;;;;;22.15;13.85;;;22.10;38.10;;;;;;6101947;28;83259;-57
2023/01/27 02:31:23;;;;;;;17.27;12.90;;;22.00;38.00;;;;;;6113052;28;83495;-55
2023/01/27 02:34:23;;;;;;;16.77;12.48;;;22.10;38.20;;;;;;6103466;28;83059;-58
2023/01/27 02:37:25;;;;;;;18.38;13.18;;;22.00;38.10;;;;;;6140606;28;86259;-57
2023/01/27 02:40:25;;;;;;;19.83;13.68;;;22.00;38.10;;;;;;6125423;28;86195;-58
2023/01/27 02:43:26;;;;;;;20.02;13.38;;;22.00;38.00;;;;;;6123796;28;85740;-59
2023/01/27 02:46:27;;;;;;;22.55;14.77;;;22.00;38.00;;;;;;6142587;28;84850;-59
2023/01/27 02:49:27;;;;;;;21.15;14.07;;;22.00;37.90;;;;;;6148568;28;83390;-57
2023/01/27 02:52:28;;;;;;;18.65;12.77;;;22.00;38.10;;;;;;6129517;28;85739;-57
2023/01/27 02:55:28;;;;;;;20.15;13.30;;;22.00;38.20;;;;;;6123740;28;82892;-56
2023/01/27 02:58:30;;;;;;;21.92;13.50;;;22.00;38.10;;;;;;6129261;28;85366;-57
2023/01/27 03:01:37;;;;;;;20.42;13.57;;;22.00;38.00;;;;;;6122623;28;84453;-58
2023/01/27 03:04:38;;;;;;;18.85;12.95;;;22.00;38.10;;;;;;6104248;28;86209;-58
2023/01/27 03:07:38;;;;;;;20.40;13.60;;;22.00;38.30;;;;;;6129194;28;84761;-57
2023/01/27 03:10:39;;;;;;;16.98;12.35;;;22.00;38.40;;;;;;6111421;28;86104;-57
2023/01/27 03:13:39;;;;;;;21.35;12.93;;;22.00;38.40;;;;;;6100378;28;83498;-58
2023/01/27 03:19:59;;;;;;;18.98;13.35;;;22.00;38.30;;;;;;6127581;28;86116;-54
2023/01/27 03:23:00;;;;;;;17.80;12.80;;;22.00;38.10;;;;;;6130614;28;83870;-55
2023/01/27 03:26:01;;;;;;;19.05;12.32;;;22.00;38.10;;;;;;6130737;28;85854;-56
2023/01/27 03:32:23;;;;;;;18.52;12.63;;;21.90;38.20;;;;;;6116229;28;85397;-57
2023/01/27 03:35:47;;;;;;;19.00;12.45;;;22.00;38.90;;;;;;6127108;28;84249;-57
2023/01/27 03:48:49;;;;;;;19.77;12.00;;;21.90;38.60;;;;;;6115517;28;83764;-58
2023/01/27 03:51:49;;;;;;;17.42;12.48;;;22.00;38.80;;;;;;6120516;28;83165;-58
2023/01/27 03:54:50;;;;;;;16.83;12.07;;;21.90;38.50;;;;;;6124011;28;83875;-59
2023/01/27 03:57:50;;;;;;;17.35;11.93;;;22.00;38.50;;;;;;6120013;28;83137;-59
2023/01/27 04:00:51;;;;;;;17.50;11.88;;;22.00;38.50;;;;;;6116706;28;83236;-59
2023/01/27 04:07:11;;;;;;;18.08;11.60;;;22.10;38.00;;;;;;6124298;28;82892;-55
2023/01/27 04:10:11;;;;;;;15.27;11.30;;;22.10;37.80;;;;;;6110577;28;82832;-57
2023/01/27 04:13:12;;;;;;;18.00;12.73;;;22.20;37.60;;;;;;6110829;28;83043;-57
2023/01/27 04:16:12;;;;;;;18.98;11.75;;;22.30;37.60;;;;;;6123967;28;83616;-58
2023/01/27 04:19:13;;;;;;;16.85;11.73;;;22.30;37.40;;;;;;6127463;28;83917;-58
2023/01/27 04:22:14;;;;;;;16.13;11.50;;;22.40;37.20;;;;;;6111491;28;83070;-57
2023/01/27 04:25:15;;;;;;;14.95;10.43;;;22.40;37.30;;;;;;6104769;28;83156;-57
2023/01/27 04:28:15;;;;;;;15.57;11.30;;;22.50;37.20;;;;;;6104960;28;84104;-58
2023/01/27 04:31:16;;;;;;;13.15;9.80;;;22.50;37.10;;;;;;6114907;28;83243;-57
2023/01/27 04:34:16;;;;;;;14.52;10.15;;;22.50;37.20;;;;;;6119627;28;83415;-57
2023/01/27 04:37:17;;;;;;;14.48;10.07;;;22.50;37.40;;;;;;6118149;28;82830;-58
2023/01/27 04:40:18;;;;;;;11.88;9.35;;;22.50;37.50;;;;;;6129690;28;83745;-58
2023/01/27 04:43:19;;;;;;;15.05;10.73;;;22.60;37.50;;;;;;6135730;28;84753;-59
2023/01/27 04:46:21;;;;;;;12.95;9.32;;;22.60;37.60;;;;;;6107754;28;83017;-48
2023/01/27 04:49:22;;;;;;;12.88;9.38;;;22.60;37.60;;;;;;6141123;28;82847;-49
2023/01/27 04:52:22;;;;;;;14.02;10.10;;;22.60;37.60;;;;;;6116891;28;80562;-50
2023/01/27 04:55:23;;;;;;;14.05;9.88;;;22.60;37.60;;;;;;6111705;28;83116;-51
2023/01/27 04:58:23;;;;;;;14.00;10.35;;;22.60;37.30;;;;;;6118931;28;83701;-50
2023/01/27 05:01:24;;;;;;;12.63;9.38;;;22.60;37.40;;;;;;6102375;28;83014;-53
2023/01/27 05:04:25;;;;;;;14.15;9.68;;;22.70;37.20;;;;;;6122377;28;83686;-58
2023/01/27 05:07:26;;;;;;;11.82;8.68;;;22.70;37.20;;;;;;6115527;28;80428;-58
2023/01/27 05:10:26;;;;;;;12.50;9.13;;;22.70;36.70;;;;;;6128148;28;80539;-58
2023/01/27 05:13:27;;;;;;;12.90;10.07;;;22.70;36.20;;;;;;6105269;28;80704;-59
2023/01/27 05:16:27;;;;;;;16.10;11.32;;;22.80;36.60;;;;;;6108657;28;83734;-50
2023/01/27 05:19:28;;;;;;;15.13;9.95;;;22.80;35.70;;;;;;6110872;28;82989;-49
2023/01/27 05:22:28;;;;;;;18.13;11.27;;;22.80;36.20;;;;;;6113631;28;81751;-50
2023/01/27 05:25:29;;;;;;;13.25;9.90;;;22.80;35.70;;;;;;6108964;28;83647;-48
2023/01/27 05:28:29;;;;;;;13.98;10.88;;;22.80;35.70;;;;;;6115202;28;83429;-49
2023/01/27 05:31:33;;;;;;;15.68;11.30;;;22.90;35.50;;;;;;6106453;28;89247;-55
2023/01/27 05:34:33;;;;;;;15.73;11.52;;;22.90;35.30;;;;;;6098739;28;83001;-46
2023/01/27 05:37:34;;;;;;;15.40;11.02;;;22.90;35.50;;;;;;6110006;28;82855;-50
2023/01/27 05:40:34;;;;;;;15.57;10.98;;;22.90;35.70;;;;;;6113239;28;89918;-54
2023/01/27 05:43:35;;;;;;;15.80;10.90;;;22.90;36.20;;;;;;6116507;28;82705;-48
2023/01/27 05:46:35;;;;;;;16.33;11.27;;;22.90;36.60;;;;;;6115733;28;89046;-53
2023/01/27 05:49:36;;;;;;;16.08;10.63;;;23.00;36.60;;;;;;6126314;28;83001;-48
2023/01/27 05:52:36;;;;;;;16.02;11.02;;;22.90;36.90;;;;;;6104029;28;84060;-60
2023/01/27 05:55:37;;;;;;;17.35;11.48;;;22.90;37.20;;;;;;6105250;28;84258;-60
2023/01/27 05:58:37;;;;;;;14.82;11.05;;;22.90;36.80;;;;;;6120897;28;84485;-62
2023/01/27 06:01:38;;;;;;;17.58;11.25;;;22.90;36.50;;;;;;6112690;28;83113;-51
2023/01/27 06:04:38;;;;;;;15.60;11.40;;;22.90;36.00;;;;;;6104359;28;88453;-52
2023/01/27 06:07:39;;;;;;;16.13;11.85;;;22.90;35.90;;;;;;6102842;28;87467;-51
2023/01/27 06:10:40;;;;;;;18.58;11.38;;;22.90;36.10;;;;;;6114417;28;82775;-59
2023/01/27 06:13:40;;;;;;;17.35;11.70;;;22.90;36.50;;;;;;6105272;28;83341;-50
2023/01/27 06:16:42;;;;;;;19.90;12.55;;;22.90;36.50;;;;;;6100344;28;83536;-50
2023/01/27 06:19:42;;;;;;;16.40;11.88;;;22.90;36.90;;;;;;6109869;28;85027;-66
2023/01/27 06:22:43;;;;;;;21.42;10.90;;;22.90;37.10;;;;;;6114470;28;82914;-63
2023/01/27 06:25:44;;;;;;;16.00;10.60;;;22.80;37.60;;;;;;6112066;28;82937;-65
2023/01/27 06:28:44;;;;;;;17.27;10.70;;;22.80;37.30;;;;;;6113379;28;83237;-63
2023/01/27 06:31:45;;;;;;;18.92;11.93;;;22.80;37.70;;;;;;6125881;28;82885;-63
2023/01/27 06:34:45;;;;;;;15.73;10.85;;;22.70;36.80;;;;;;6113219;28;84166;-63
2023/01/27 06:37:46;;;;;;;16.60;11.63;;;22.70;36.80;;;;;;6137857;28;84403;-62
2023/01/27 06:40:46;;;;;;;16.98;11.98;;;22.60;36.40;;;;;;6133852;28;82994;-63
2023/01/27 06:43:47;;;;;;;16.73;11.73;;;22.60;36.30;;;;;;6138446;28;83099;-62
2023/01/27 06:46:47;;;;;;;15.90;11.82;;;22.60;36.30;;;;;;6123953;28;84685;-64
2023/01/27 06:49:48;;;;;;;17.60;12.20;;;22.50;36.20;;;;;;6126740;28;83252;-63
2023/01/27 06:52:49;;;;;;;15.85;11.65;;;22.50;36.20;;;;;;6132744;28;82903;-63
2023/01/27 06:55:49;;;;;;;18.02;12.50;;;22.50;36.30;;;;;;6124789;28;84042;-64
2023/01/27 06:58:50;;;;;;;17.98;12.05;;;22.40;36.30;;;;;;6138923;28;83340;-64
2023/01/27 07:01:50;;;;;;;17.60;12.30;;;22.40;36.30;;;;;;6135434;28;83879;-64
2023/01/27 07:04:51;;;;;;;17.83;12.20;;;22.40;36.30;;;;;;6121043;28;86277;-63
2023/01/27 07:07:51;;;;;;;15.27;11.07;;;22.30;36.50;;;;;;6123526;28;83730;-64
2023/01/27 07:10:52;;;;;;;17.05;11.77;;;22.30;37.60;;;;;;6119686;28;83520;-63
2023/01/27 07:13:53;;;;;;;17.23;11.63;;;22.30;36.90;;;;;;6099445;28;84007;-63
2023/01/27 07:16:53;;;;;;;16.63;11.07;;;22.30;36.90;;;;;;6067609;28;84603;-65
2023/01/27 07:19:54;;;;;;;16.70;11.48;;;22.20;37.10;;;;;;5924899;28;86953;-64
2023/01/27 07:22:54;;;;;;;16.83;11.68;;;22.20;36.90;;;;;;6089515;28;84349;-63
2023/01/27 07:25:55;;;;;;;15.65;11.30;;;22.20;36.90;;;;;;6107023;28;83221;-64
2023/01/27 07:28:55;;;;;;;16.30;10.85;;;22.10;36.60;;;;;;6100959;28;84760;-64
2023/01/27 07:31:56;;;;;;;17.73;11.48;;;22.10;36.70;;;;;;6082204;28;85479;-62
2023/01/27 07:34:56;;;;;;;16.90;12.13;;;22.10;36.50;;;;;;6111618;28;83534;-64
2023/01/27 07:37:57;;;;;;;16.95;11.70;;;22.10;36.50;;;;;;6107474;28;86276;-64
2023/01/27 07:40:57;;;;;;;18.55;11.70;;;22.10;36.40;;;;;;6091212;28;83498;-61
2023/01/27 07:43:58;;;;;;;19.45;12.32;;;22.00;36.50;;;;;;6093806;28;83710;-64
2023/01/27 07:47:00;;;;;;;16.70;11.40;;;22.00;37.50;;;;;;6124673;28;84771;-65
2023/01/27 07:50:01;;;;;;;18.38;12.15;;;22.00;37.30;;;;;;6110417;28;83859;-65
2023/01/27 07:53:01;;;;;;;22.92;12.85;;;22.10;37.70;;;;;;6123138;28;84670;-65
2023/01/27 07:56:02;;;;;;;16.38;11.70;;;22.00;38.00;;;;;;6109281;28;83125;-66
2023/01/27 07:59:02;;;;;;;17.23;12.30;;;22.00;37.90;;;;;;6111409;28;85046;-65
2023/01/27 08:02:03;;;;;;;14.07;10.73;;;22.00;38.30;;;;;;6122271;28;84222;-65
2023/01/27 08:05:03;;;;;;;17.38;11.98;;;22.00;38.30;;;;;;6110905;28;85275;-65
2023/01/27 08:08:04;;;;;;;18.02;11.32;;;22.00;38.20;;;;;;6085444;28;85935;-63
2023/01/27 08:11:06;;;;;;;16.65;11.75;;;22.00;38.40;;;;;;6103309;28;83401;-63
2023/01/27 08:14:07;;;;;;;16.73;11.07;;;22.00;38.40;;;;;;6106958;28;83139;-65
2023/01/27 08:17:07;;;;;;;17.38;11.45;;;22.00;38.90;;;;;;6126632;28;83048;-65
2023/01/27 08:20:08;;;;;;;17.10;11.55;;;22.00;39.10;;;;;;6110429;28;83136;-65
2023/01/27 08:23:09;;;;;;;14.30;10.10;;;22.00;39.20;;;;;;6111725;28;85929;-65
2023/01/27 08:26:09;;;;;;;17.42;10.52;;;22.00;38.90;;;;;;6100430;28;83539;-65
2023/01/27 08:29:10;;;;;;;15.18;10.25;;;22.00;39.20;;;;;;6108087;28;84466;-64
2023/01/27 08:32:10;;;;;;;15.05;10.55;;;22.00;39.00;;;;;;6118266;28;86447;-67
2023/01/27 08:35:11;;;;;;;14.27;9.85;;;22.00;38.70;;;;;;6112516;28;83150;-65
2023/01/27 08:38:11;;;;;;;13.85;9.98;;;22.00;38.80;;;;;;6115975;28;82835;-64
2023/01/27 08:41:12;;;;;;;15.48;10.73;;;22.00;38.70;;;;;;6112808;28;83117;-64
2023/01/27 08:44:12;;;;;;;13.85;10.52;;;22.00;39.00;;;;;;6121811;28;84833;-69
2023/01/27 08:47:13;;;;;;;13.52;9.52;;;22.00;39.20;;;;;;6106811;28;83342;-66
2023/01/27 08:50:13;;;;;;;14.15;10.10;;;22.00;39.30;;;;;;6125600;28;83028;-67
2023/01/27 08:53:14;;;;;;;15.27;10.88;;;22.00;39.60;;;;;;6114677;28;84699;-69
2023/01/27 08:56:14;;;;;;;15.32;10.30;;;22.00;39.30;;;;;;6113277;28;85397;-67
2023/01/27 08:59:15;;;;;;;14.38;10.07;;;22.00;39.50;;;;;;6113332;28;86127;-67
2023/01/27 09:02:16;;;;;;;14.70;10.60;;;22.00;39.50;;;;;;6107683;28;82835;-63
2023/01/27 09:05:16;;;;;;;14.77;10.20;;;22.00;39.70;;;;;;6104060;28;84242;-65
2023/01/27 09:08:17;;;;;;;13.45;9.90;;;21.90;39.60;;;;;;6096447;28;83218;-65
2023/01/27 09:11:17;;;;;;;14.25;9.57;;;21.90;39.40;;;;;;6100211;28;87153;-64
2023/01/27 09:14:19;;;;;;;14.98;9.90;;;21.90;39.60;;;;;;6104477;28;82781;-65
2023/01/27 09:17:19;;;;;;;14.50;10.35;;;21.90;39.50;;;;;;6103102;28;80542;-66
2023/01/27 09:20:21;;;;;;;13.80;9.40;;;21.90;39.60;;;;;;6090882;28;83229;-66
2023/01/27 09:23:21;;;;;;;15.50;9.70;;;21.90;39.60;;;;;;6103879;28;83361;-66
2023/01/27 09:26:22;;;;;;;13.55;9.82;;;21.90;39.80;;;;;;6102391;28;81705;-63
2023/01/27 09:29:22;;;;;;;14.50;10.40;;;21.90;39.20;;;;;;6111803;28;82842;-64
2023/01/27 09:32:23;;;;;;;16.20;10.70;;;21.90;39.90;;;;;;6117928;28;83355;-63
2023/01/27 09:35:23;;;;;;;15.65;10.82;;;21.90;39.50;;;;;;6107210;28;83147;-62
2023/01/27 09:38:24;;;;;;;15.38;10.50;;;21.90;39.30;;;;;;6106194;28;83169;-63
2023/01/27 09:41:25;;;;;;;16.25;10.85;;;21.90;39.30;;;;;;6113816;28;83129;-65
2023/01/27 09:44:25;;;;;;;14.85;10.40;;;21.90;39.00;;;;;;6115501;28;83703;-67
2023/01/27 09:47:26;;;;;;;17.30;11.65;;;21.90;38.80;;;;;;6113872;28;82950;-69
2023/01/27 09:50:27;;;;;;;18.38;10.73;;;21.90;38.60;;;;;;6108629;28;83992;-63
2023/01/27 09:53:28;;;;;;;15.75;11.10;;;21.80;40.40;;;;;;6086450;28;83243;-62
2023/01/27 09:56:28;;;;;;;17.48;11.45;;;21.90;39.80;;;;;;6109312;28;82892;-63
2023/01/27 09:59:29;;;;;;;17.67;11.35;;;21.90;40.40;;;;;;6104898;28;83482;-62
2023/01/27 10:02:29;;;;;;;15.93;11.40;;;21.90;40.00;;;;;;6115427;28;83282;-62
2023/01/27 10:05:30;;;;;;;18.48;11.20;;;21.90;40.20;;;;;;6106742;28;84076;-62
2023/01/27 10:08:30;;;;;;;16.55;10.75;;;21.90;40.30;;;;;;6103852;28;83311;-63
2023/01/27 10:11:31;;;;;;;14.95;9.75;;;21.90;39.90;;;;;;6112591;28;83759;-63
2023/01/27 10:14:31;;;;;;;15.88;9.95;;;21.90;39.90;;;;;;6112604;28;83404;-64
2023/01/27 10:17:32;;;;;;;14.20;9.73;;;21.90;39.40;;;;;;6096894;28;81745;-62
2023/01/27 10:20:33;;;;;;;15.00;9.82;;;21.90;39.40;;;;;;6107272;28;80607;-63
2023/01/27 10:23:33;;;;;;;13.13;9.63;;;21.90;39.50;;;;;;6110484;28;82419;-62
2023/01/27 10:26:34;;;;;;;14.23;9.90;;;21.90;39.40;;;;;;6109990;28;81262;-63
2023/01/27 10:29:35;;;;;;;14.88;10.05;;;21.90;39.40;;;;;;6109407;28;82922;-63
2023/01/27 10:32:36;;;;;;;14.63;10.23;;;21.80;39.70;;;;;;6113514;28;83193;-62
2023/01/27 10:35:36;;;;;;;15.35;10.55;;;21.90;39.40;;;;;;6107881;28;84511;-61
2023/01/27 10:38:37;;;;;;;14.85;10.30;;;21.90;39.20;;;;;;6108095;28;83477;-61
2023/01/27 10:41:37;;;;;;;15.20;10.90;;;21.90;39.30;;;;;;6104334;28;86762;-63
2023/01/27 10:44:38;;;;;;;16.02;10.50;;;21.90;39.30;;;;;;6114746;28;83848;-63
2023/01/27 10:47:39;;;;;;;15.45;10.52;;;21.80;39.40;;;;;;6110368;28;83830;-62
2023/01/27 10:50:39;;;;;;;16.88;10.32;;;21.90;39.20;;;;;;6107279;28;83585;-62
2023/01/27 10:53:40;;;;;;;13.95;9.52;;;21.90;39.10;;;;;;6110264;28;84617;-62
2023/01/27 10:56:41;;;;;;;13.50;9.57;;;21.80;39.10;;;;;;6109176;28;82939;-63
2023/01/27 10:59:41;;;;;;;14.25;10.23;;;21.80;39.20;;;;;;6111440;28;81660;-63
2023/01/27 11:02:44;;;;;;;16.17;11.23;;;21.80;39.20;;;;;;6090802;28;83637;-62
2023/01/27 11:05:45;;;;;;;15.57;10.25;;;21.80;39.00;;;;;;6114180;28;84778;-61
2023/01/27 11:08:45;;;;;;;14.88;10.52;;;21.80;38.90;;;;;;6120844;28;82979;-65
2023/01/27 11:11:48;;;;;;;16.02;11.25;;;21.80;38.90;;;;;;6110796;28;84325;-66
2023/01/27 11:14:48;;;;;;;16.23;11.75;;;21.80;39.00;;;;;;6100549;28;85606;-68
2023/01/27 11:17:49;;;;;;;18.25;12.85;;;21.80;38.70;;;;;;6104823;28;87069;-68
2023/01/27 11:20:49;;;;;;;17.15;11.68;;;21.80;38.60;;;;;;6122681;28;84525;-69
2023/01/27 11:23:54;;;;;;;17.35;11.98;;;21.80;38.80;;;;;;6113354;28;83800;-68
2023/01/27 11:26:55;;;;;;;18.23;11.57;;;21.80;38.80;;;;;;6117154;28;82989;-71
2023/01/27 11:29:55;;;;;;;17.20;11.98;;;21.90;39.10;;;;;;6111732;28;85353;-68
2023/01/27 11:32:56;;;;;;;17.02;11.57;;;21.90;39.20;;;;;;6114256;28;85178;-69
2023/01/27 11:35:56;;;;;;;15.05;10.82;;;21.90;39.20;;;;;;6113408;28;83318;-68
2023/01/27 11:38:57;;;;;;;17.15;11.45;;;21.90;39.20;;;;;;6118028;28;83670;-66
2023/01/27 11:41:58;;;;;;;15.90;11.07;;;21.90;39.10;;;;;;6107989;28;82978;-67
2023/01/27 11:44:58;;;;;;;18.15;11.45;;;21.90;39.00;;;;;;6098262;28;83444;-67
2023/01/27 11:47:59;;;;;;;17.02;11.52;;;21.90;38.90;;;;;;6104172;28;83044;-67
2023/01/27 11:50:59;;;;;;;17.15;11.52;;;21.90;38.60;;;;;;6113004;28;86490;-68
2023/01/27 11:54:00;;;;;;;17.70;11.75;;;21.90;38.50;;;;;;6101428;28;87761;-68
2023/01/27 11:57:01;;;;;;;16.63;10.75;;;21.90;38.30;;;;;;6099811;28;85551;-68
2023/01/27 12:00:01;;;;;;;18.17;12.23;;;21.90;38.40;;;;;;6095660;28;85923;-68
2023/01/27 12:03:05;;;;;;;18.02;11.90;;;21.80;38.90;;;;;;6107828;28;87586;-63
2023/01/27 12:06:05;;;;;;;20.10;13.27;;;21.80;38.30;;;;;;6107853;28;89949;-69
2023/01/27 12:09:06;;;;;;;17.85;12.18;;;21.80;38.20;;;;;;6105620;28;84137;-68
2023/01/27 12:12:06;;;;;;;15.88;11.68;;;21.80;38.20;;;;;;6110384;28;83032;-68
2023/01/27 12:15:07;;;;;;;19.77;12.43;;;21.80;38.20;;;;;;6111621;28;82735;-68
2023/01/27 12:18:07;;;;;;;18.10;12.77;;;21.80;38.20;;;;;;6117528;28;83079;-66
2023/01/27 12:21:09;;;;;;;19.70;13.05;;;21.70;38.30;;;;;;6111969;28;84054;-67
2023/01/27 12:24:09;;;;;;;17.77;11.93;;;21.70;38.40;;;;;;6116145;28;83873;-69
2023/01/27 12:27:10;;;;;;;19.55;12.20;;;21.70;38.80;;;;;;6109068;28;84797;-67
2023/01/27 12:30:10;;;;;;;19.70;12.80;;;21.70;38.00;;;;;;6116098;28;83001;-68
2023/01/27 12:33:11;;;;;;;19.63;12.75;;;21.70;37.90;;;;;;6119138;28;83777;-68
2023/01/27 12:36:11;;;;;;;16.95;11.57;;;21.70;38.00;;;;;;6118884;28;83538;-69
2023/01/27 12:39:12;;;;;;;16.15;11.50;;;21.70;38.10;;;;;;6121219;28;83376;-69
2023/01/27 12:42:13;;;;;;;17.13;11.48;;;21.70;38.10;;;;;;6119534;28;83657;-68
2023/01/27 12:45:13;;;;;;;16.35;11.35;;;21.70;38.20;;;;;;6135303;28;84310;-53
2023/01/27 12:48:17;;;;;;;17.35;11.38;;;21.70;38.30;;;;;;6122446;28;84328;-53
2023/01/27 12:51:17;;;;;;;16.20;12.00;;;21.70;38.20;;;;;;6111694;28;83492;-54
2023/01/27 12:54:18;;;;;;;20.02;12.88;;;21.70;38.40;;;;;;6115352;28;83510;-52
2023/01/27 12:57:18;;;;;;;19.55;13.27;;;21.70;38.30;;;;;;6114208;28;86151;-53
2023/01/27 13:00:19;;;;;;;21.75;14.07;;;21.70;39.60;;;;;;6108535;28;83052;-56
2023/01/27 13:03:19;;;;;;;21.70;15.82;;;21.70;41.80;;;;;;6099610;28;83787;-57
2023/01/27 13:06:20;;;;;;;23.35;15.48;;;21.80;42.10;;;;;;6122189;28;83405;-57
2023/01/27 13:09:20;;;;;;;27.13;16.45;;;21.80;43.40;;;;;;6120606;28;83087;-55
2023/01/27 13:12:21;;;;;;;22.52;15.93;;;21.80;42.80;;;;;;6111284;28;84727;-54
2023/01/27 13:15:21;;;;;;;19.48;14.98;;;21.80;42.20;;;;;;6101662;28;84524;-55
2023/01/27 13:18:22;;;;;;;18.98;13.50;;;21.80;42.00;;;;;;6122840;28;84092;-55
2023/01/27 13:21:23;;;;;;;17.08;12.40;;;21.80;43.20;;;;;;6101022;28;83705;-48
2023/01/27 13:24:24;;;;;;;19.02;12.60;;;21.80;42.30;;;;;;6107109;28;82957;-52
2023/01/27 13:27:24;;;;;;;16.35;11.63;;;21.80;41.90;;;;;;6124077;28;86794;-51
2023/01/27 13:30:26;;;;;;;15.55;10.68;;;21.90;41.80;;;;;;6108849;28;85961;-51
2023/01/27 13:33:27;;;;;;;13.25;8.82;;;21.80;41.50;;;;;;6110617;28;84082;-52
2023/01/27 13:36:28;;;;;;;14.40;9.80;;;21.90;41.50;;;;;;6106435;28;83528;-51
2023/01/27 13:39:28;;;;;;;13.27;9.75;;;21.80;41.20;;;;;;6118038;28;83361;-50
2023/01/27 13:42:29;;;;;;;13.55;10.10;;;21.90;41.00;;;;;;6096329;28;81154;-58
2023/01/27 13:45:31;;;;;;;16.52;11.77;;;21.80;40.90;;;;;;6101196;28;86185;-54
2023/01/27 13:48:32;;;;;;;14.35;10.70;;;21.80;40.10;;;;;;6119836;28;83379;-57
2023/01/27 13:51:32;;;;;;;15.05;11.10;;;21.80;40.40;;;;;;6105149;28;84806;-49
2023/01/27 13:54:33;;;;;;;15.95;11.00;;;21.80;41.10;;;;;;6117704;28;84153;-50
2023/01/27 13:57:33;;;;;;;17.50;11.32;;;21.70;41.00;;;;;;6115704;28;83206;-56
2023/01/27 14:00:34;;;;;;;18.63;10.88;;;21.70;41.10;;;;;;6112623;28;83501;-56
2023/01/27 14:03:34;;;;;;;16.00;10.63;;;21.80;41.80;;;;;;6121386;28;83028;-57
2023/01/27 14:06:35;;;;;;;18.42;10.63;;;21.80;40.90;;;;;;6115740;28;83364;-58
2023/01/27 14:09:35;;;;;;;13.27;9.18;;;21.80;40.90;;;;;;6118481;28;82987;-57
2023/01/27 14:12:36;;;;;;;13.95;10.30;;;21.80;40.90;;;;;;6114804;28;82792;-58
2023/01/27 14:15:36;;;;;;;13.80;9.70;;;21.70;40.50;;;;;;6114880;28;84355;-57
2023/01/27 14:18:37;;;;;;;14.75;10.25;;;21.70;40.40;;;;;;6089363;28;88216;-59
2023/01/27 14:21:38;;;;;;;15.13;9.18;;;21.70;40.30;;;;;;6104570;28;85674;-58
2023/01/27 14:24:39;;;;;;;15.68;10.60;;;21.70;40.00;;;;;;6116735;28;83482;-59
2023/01/27 14:27:40;;;;;;;16.80;11.15;;;21.70;40.10;;;;;;6101687;28;82812;-57
2023/01/27 14:30:40;;;;;;;16.33;10.98;;;21.70;40.60;;;;;;6114743;28;85456;-57
2023/01/27 14:33:41;;;;;;;14.93;10.65;;;21.70;40.40;;;;;;6098933;28;82975;-59
2023/01/27 14:36:41;;;;;;;16.65;10.57;;;21.70;40.20;;;;;;6074717;28;85042;-60
2023/01/27 14:39:43;;;;;;;14.23;10.20;;;21.70;40.30;;;;;;6090903;28;84611;-64
2023/01/27 14:42:43;;;;;;;17.13;10.95;;;21.70;40.00;;;;;;6093774;28;83732;-61
2023/01/27 14:45:44;;;;;;;16.40;10.45;;;21.80;39.90;;;;;;6094701;28;83790;-64
2023/01/27 14:48:44;;;;;;;15.13;11.00;;;21.80;40.30;;;;;;6092552;28;83231;-63
2023/01/27 14:51:45;;;;;;;17.50;11.20;;;21.80;39.60;;;;;;6112015;28;82963;-62
2023/01/27 14:54:45;;;;;;;17.63;10.73;;;21.70;39.50;;;;;;6106285;28;85433;-62
2023/01/27 14:57:46;;;;;;;16.50;11.13;;;21.80;39.70;;;;;;6110937;28;82974;-62
2023/01/27 15:00:47;;;;;;;16.27;11.45;;;21.70;39.70;;;;;;6108306;28;83640;-62
2023/01/27 15:03:47;;;;;;;17.52;10.90;;;21.70;39.50;;;;;;6127798;28;85051;-63
2023/01/27 15:06:48;;;;;;;23.30;11.93;;;21.80;39.50;;;;;;6107503;28;83489;-62
2023/01/27 15:09:48;;;;;;;15.27;10.95;;;21.70;39.40;;;;;;6100497;28;83525;-62
2023/01/27 15:12:49;;;;;;;15.90;11.18;;;21.70;39.40;;;;;;6097066;28;88191;-64
2023/01/27 15:15:49;;;;;;;17.27;10.80;;;21.70;39.40;;;;;;6100489;28;83562;-61
2023/01/27 15:18:50;;;;;;;16.15;10.68;;;21.80;39.50;;;;;;6108117;28;83400;-61
2023/01/27 15:21:50;;;;;;;17.73;10.80;;;21.80;39.00;;;;;;6100847;28;83155;-61
2023/01/27 15:24:51;;;;;;;16.23;11.68;;;21.90;38.80;;;;;;6109215;28;84105;-62
2023/01/27 15:27:51;;;;;;;17.25;11.07;;;22.00;38.70;;;;;;6109052;28;86237;-62
2023/01/27 15:30:52;;;;;;;14.77;10.02;;;22.00;38.50;;;;;;6109400;28;83403;-62
2023/01/27 15:33:52;;;;;;;14.50;10.63;;;22.10;38.40;;;;;;6094948;28;89064;-62
2023/01/27 15:36:53;;;;;;;14.07;10.38;;;22.10;38.10;;;;;;6106876;28;83296;-61
2023/01/27 15:39:54;;;;;;;16.33;10.50;;;22.20;38.10;;;;;;6112884;28;85993;-62
2023/01/27 15:42:54;;;;;;;15.77;10.82;;;22.20;37.80;;;;;;6111351;28;83447;-64
2023/01/27 15:45:55;;;;;;;17.25;10.98;;;22.30;38.60;;;;;;6121741;28;82934;-62
2023/01/27 15:48:55;;;;;;;14.00;10.02;;;22.30;37.70;;;;;;6106849;28;82956;-61